トロンハイム の空港の天気 - METARとTAF

Trondheim / Vaernes ( ENVA / TRD ) - ノルウェー ヌール・トロンデラーグ県、Stjordal
飛行場実況気象(Metar)
観測時間06/19 18:20 CEST (06/19 16:20 UTC)
風向・風速西 11m/s 瞬間風速16m/s
視程10km以上
天気現象
全天の8割程度の雲 雲底高度 1220m
気温13℃
湿度62%
気圧1000hPa
METARENVA 191620Z 26021G31KT 9999 BKN040 13/06 Q1000 TEMPO SHRA RMK WIND 670FT 26018G30KT
過去の天気等 Google飛行場航空写真 Wunderground天気予報

過去48時間のMETAR

飛行場予報(TAF)
発表時間: -
19日18時 CEST ~ 20日14時 CEST に一時的に
天気現象しゅう雨
全天の4割程度の積乱雲 雲底高度 610m
全天の8割程度の雲 雲底高度 910m
20日9時 CEST ~ 20日12時 CEST に徐々に
風向・風速西北西 6m/s
AMD ENVA 1916/2012 26020G30KT 9999 -SHRA FEW020 BKN040
TEMPO 1916/2012 SHRA SCT020CB BKN030
BECMG 2007/2010 29012KT